createdAt,value
2022-08-18T00:01:50.012Z,11.55
2022-08-18T00:04:55.374Z,13.82
2022-08-18T00:08:01.558Z,10.57
2022-08-18T00:11:04.906Z,15.80
2022-08-18T00:14:08.467Z,11.45
2022-08-18T00:17:11.389Z,10.32
2022-08-18T00:20:16.604Z,10.70
2022-08-18T00:23:20.507Z,11.85
2022-08-18T00:26:23.388Z,12.90
2022-08-18T00:29:26.748Z,11.07
2022-08-18T00:32:31.037Z,10.25
2022-08-18T00:35:35.859Z,11.00
2022-08-18T00:38:40.812Z,11.75
2022-08-18T00:41:43.320Z,11.80
2022-08-18T00:44:45.912Z,11.73
2022-08-18T00:47:48.397Z,12.35
2022-08-18T00:50:54.159Z,13.07
2022-08-18T00:54:03.905Z,12.57
2022-08-18T00:57:08.297Z,10.98
2022-08-18T01:00:13.204Z,12.88
2022-08-18T01:03:24.459Z,13.57
2022-08-18T01:06:33.312Z,11.93
2022-08-18T01:09:37.503Z,11.73
2022-08-18T01:12:46.241Z,11.05
2022-08-18T01:15:49.098Z,13.00
2022-08-18T01:19:09.779Z,14.77
2022-08-18T01:22:25.344Z,12.57
2022-08-18T01:25:49.064Z,12.80
2022-08-18T01:28:52.427Z,13.32
2022-08-18T01:31:56.041Z,11.05
2022-08-18T01:35:00.229Z,12.70
2022-08-18T01:38:02.659Z,13.23
2022-08-18T01:41:25.600Z,13.65
2022-08-18T01:44:29.891Z,12.75
2022-08-18T01:47:47.090Z,12.90
2022-08-18T01:50:53.461Z,16.17
2022-08-18T01:53:56.238Z,12.07
2022-08-18T01:57:00.696Z,12.18
2022-08-18T02:00:03.228Z,15.93
2022-08-18T02:03:08.628Z,12.20
2022-08-18T02:06:14.711Z,15.98
2022-08-18T02:09:17.368Z,14.10
2022-08-18T02:12:28.177Z,13.18
2022-08-18T02:15:30.659Z,14.38
2022-08-18T02:18:47.449Z,13.25
2022-08-18T02:21:52.688Z,16.27
2022-08-18T02:24:57.515Z,14.55
2022-08-18T02:28:01.315Z,13.52
2022-08-18T02:31:09.063Z,16.45
2022-08-18T02:34:13.955Z,12.77
2022-08-18T02:37:16.377Z,16.75
2022-08-18T02:40:19.477Z,13.13
2022-08-18T02:43:23.446Z,14.35
2022-08-18T02:46:30.210Z,14.68
2022-08-18T02:49:34.077Z,14.18
2022-08-18T02:52:36.659Z,14.88
2022-08-18T02:55:40.804Z,13.95
2022-08-18T02:58:44.608Z,15.43
2022-08-18T03:01:50.734Z,13.63
2022-08-18T03:04:53.484Z,16.77
2022-08-18T03:07:55.928Z,16.67
2022-08-18T03:10:58.758Z,14.98
2022-08-18T03:14:03.037Z,15.93
2022-08-18T03:17:08.195Z,13.15
2022-08-18T03:20:11.516Z,14.05
2022-08-18T03:23:14.185Z,13.80
2022-08-18T03:26:17.752Z,14.52
2022-08-18T03:29:22.127Z,14.68
2022-08-18T03:32:24.571Z,17.27
2022-08-18T03:35:27.039Z,14.27
2022-08-18T03:38:29.500Z,16.38
2022-08-18T03:41:56.992Z,16.40
2022-08-18T03:44:55.849Z,15.07
2022-08-18T03:48:00.438Z,16.80
2022-08-18T03:51:06.755Z,18.83
2022-08-18T03:54:09.722Z,15.77
2022-08-18T03:57:13.154Z,16.77
2022-08-18T04:00:17.999Z,15.23
2022-08-18T04:03:20.480Z,14.88
2022-08-18T04:06:30.379Z,17.55
2022-08-18T04:09:34.591Z,16.30
2022-08-18T04:12:39.732Z,15.00
2022-08-18T04:15:43.590Z,14.00
2022-08-18T04:18:46.027Z,15.10
2022-08-18T04:21:53.098Z,15.85
2022-08-18T04:24:55.631Z,17.08
2022-08-18T04:28:03.377Z,17.63
2022-08-18T04:31:13.170Z,15.57
2022-08-18T04:34:16.141Z,16.05
2022-08-18T04:37:19.284Z,15.73
2022-08-18T04:40:25.172Z,16.85
2022-08-18T04:43:27.953Z,14.05
2022-08-18T04:46:36.067Z,15.20
2022-08-18T04:49:38.856Z,16.13
2022-08-18T04:52:59.080Z,17.52
2022-08-18T04:56:01.531Z,15.27
2022-08-18T04:59:09.483Z,15.82
2022-08-18T05:02:14.996Z,14.73
2022-08-18T05:05:17.810Z,15.48
2022-08-18T05:08:20.499Z,17.88
2022-08-18T05:11:24.418Z,17.92
2022-08-18T05:14:27.583Z,15.35
2022-08-18T05:17:31.399Z,16.20
2022-08-18T05:20:33.882Z,17.20
2022-08-18T05:23:36.330Z,17.35
2022-08-18T05:26:41.048Z,15.98
2022-08-18T05:29:46.094Z,16.52
2022-08-18T05:32:50.730Z,14.02
2022-08-18T05:36:03.404Z,16.45
2022-08-18T05:39:13.371Z,17.15
2022-08-18T05:42:19.344Z,14.07
2022-08-18T05:45:21.803Z,15.95
2022-08-18T05:48:25.607Z,14.98
2022-08-18T05:51:32.118Z,16.48
2022-08-18T05:54:58.203Z,21.73
2022-08-18T05:58:04.381Z,14.55
2022-08-18T06:01:12.532Z,12.93
2022-08-18T06:04:24.391Z,14.13
2022-08-18T06:07:35.413Z,13.52
2022-08-18T06:10:38.012Z,16.10
2022-08-18T06:13:43.493Z,14.85
2022-08-18T06:17:08.054Z,14.25
2022-08-18T06:20:21.156Z,16.25
2022-08-18T06:23:30.972Z,15.88
2022-08-18T06:26:41.332Z,14.75
2022-08-18T06:29:58.771Z,13.60
2022-08-18T06:33:11.573Z,12.60
2022-08-18T06:36:27.060Z,15.48
2022-08-18T06:39:35.595Z,14.07
2022-08-18T06:42:40.579Z,14.00
2022-08-18T06:45:46.040Z,12.68
2022-08-18T06:48:54.643Z,13.68
2022-08-18T06:51:58.413Z,13.98
2022-08-18T06:55:03.398Z,11.88
2022-08-18T06:58:20.778Z,14.27
2022-08-18T07:01:25.709Z,16.70
2022-08-18T07:04:34.356Z,12.32
2022-08-18T07:07:41.146Z,14.60
2022-08-18T07:10:46.019Z,12.07
2022-08-18T07:14:09.105Z,12.93
2022-08-18T07:17:22.179Z,13.23
2022-08-18T07:23:34.701Z,12.05
2022-08-18T07:27:00.099Z,13.88
2022-08-18T07:30:06.055Z,13.68
2022-08-18T07:33:19.086Z,11.27
2022-08-18T07:36:25.717Z,14.50
2022-08-18T07:39:34.216Z,11.50
2022-08-18T07:43:01.653Z,13.95
2022-08-18T07:46:11.541Z,13.43
2022-08-18T07:49:21.994Z,15.75
2022-08-18T07:52:44.059Z,15.02
2022-08-18T07:55:56.856Z,12.85
2022-08-18T07:59:08.899Z,13.20
2022-08-18T08:02:24.027Z,14.48
2022-08-18T08:05:40.448Z,14.80
2022-08-18T08:08:45.064Z,12.13
2022-08-18T08:11:59.227Z,12.82
2022-08-18T08:15:13.605Z,12.70
2022-08-18T08:18:22.387Z,14.75
2022-08-18T08:21:29.807Z,11.20
2022-08-18T08:24:40.465Z,15.07
2022-08-18T08:27:59.563Z,12.52
2022-08-18T08:31:35.893Z,13.02
2022-08-18T08:34:43.688Z,10.85
2022-08-18T08:37:52.694Z,12.10
2022-08-18T08:41:04.377Z,12.63
2022-08-18T08:44:11.865Z,12.93
2022-08-18T08:47:23.264Z,14.50
2022-08-18T08:50:28.191Z,14.30
2022-08-18T08:53:35.311Z,11.88
2022-08-18T08:56:44.429Z,14.25
2022-08-18T08:59:51.672Z,12.20
2022-08-18T09:03:03.117Z,13.73
2022-08-18T09:06:22.667Z,12.77
2022-08-18T09:09:41.083Z,16.08
2022-08-18T09:12:54.784Z,12.82
2022-08-18T09:16:13.696Z,11.43
2022-08-18T09:19:34.370Z,11.25
2022-08-18T09:22:46.560Z,11.33
2022-08-18T09:25:51.926Z,12.13
2022-08-18T09:28:58.862Z,13.32
2022-08-18T09:32:37.284Z,12.73
2022-08-18T09:35:57.822Z,12.93
2022-08-18T09:39:27.681Z,11.73
2022-08-18T09:42:50.001Z,11.93
2022-08-18T09:45:56.320Z,12.10
2022-08-18T09:49:37.991Z,11.38
2022-08-18T09:52:50.126Z,14.25
2022-08-18T09:56:04.816Z,12.90
2022-08-18T09:59:10.828Z,12.88
2022-08-18T10:02:36.905Z,11.85
2022-08-18T10:05:42.202Z,12.48
2022-08-18T10:09:26.820Z,12.68
2022-08-18T10:13:08.459Z,12.50
2022-08-18T10:16:21.252Z,11.68
2022-08-18T10:19:33.820Z,12.52
2022-08-18T10:22:47.500Z,15.65
2022-08-18T10:25:50.249Z,11.43
2022-08-18T10:28:55.617Z,14.25
2022-08-18T10:32:24.593Z,11.00
2022-08-18T10:35:57.788Z,13.50
2022-08-18T10:39:06.690Z,11.15
2022-08-18T10:42:19.247Z,13.13
2022-08-18T10:45:26.848Z,10.40
2022-08-18T10:48:31.953Z,13.25
2022-08-18T10:51:59.477Z,12.75
2022-08-18T10:55:16.303Z,16.35
2022-08-18T10:58:36.649Z,14.93
2022-08-18T11:02:04.863Z,9.77
2022-08-18T11:05:10.968Z,10.05
2022-08-18T11:08:17.242Z,14.70
2022-08-18T11:11:37.449Z,8.50
2022-08-18T11:15:22.059Z,13.57
2022-08-18T11:18:36.399Z,12.23
2022-08-18T11:21:51.105Z,9.20
2022-08-18T11:24:54.269Z,10.93
2022-08-18T11:27:59.139Z,10.38
2022-08-18T11:31:01.703Z,9.75
2022-08-18T11:34:18.351Z,8.73
2022-08-18T11:37:27.111Z,14.73
2022-08-18T11:41:10.727Z,9.50
2022-08-18T11:44:02.619Z,12.37
2022-08-18T11:47:17.326Z,8.57
2022-08-18T11:50:28.162Z,15.05
2022-08-18T11:53:43.013Z,8.35
2022-08-18T11:56:47.643Z,9.25
2022-08-18T12:03:21.833Z,10.63
2022-08-18T12:06:29.860Z,11.65
2022-08-18T12:13:03.619Z,9.38
2022-08-18T12:16:13.927Z,12.25
2022-08-18T12:19:17.459Z,10.05
2022-08-18T12:22:26.121Z,11.40
2022-08-18T12:25:28.549Z,9.10
2022-08-18T12:28:31.269Z,7.85
2022-08-18T12:31:47.552Z,8.15
2022-08-18T12:34:51.532Z,7.30
2022-08-18T12:37:59.584Z,6.45
2022-08-18T12:41:03.483Z,8.57
2022-08-18T12:44:09.987Z,8.15
2022-08-18T12:47:21.058Z,7.88
2022-08-18T12:50:31.346Z,7.47
2022-08-18T12:53:57.851Z,6.43
2022-08-18T12:57:00.719Z,8.32
2022-08-18T13:00:04.179Z,10.00
2022-08-18T13:03:08.742Z,8.00
2022-08-18T13:06:11.656Z,9.52
2022-08-18T13:09:16.373Z,12.27
2022-08-18T13:12:37.451Z,7.65
2022-08-18T13:15:44.399Z,7.60
2022-08-18T13:19:02.938Z,9.95
2022-08-18T13:22:09.442Z,6.82
2022-08-18T13:25:32.415Z,5.95
2022-08-18T13:28:57.283Z,6.82
2022-08-18T13:32:00.828Z,5.88
2022-08-18T13:35:13.357Z,5.93
2022-08-18T13:38:25.629Z,7.63
2022-08-18T13:41:32.667Z,5.43
2022-08-18T13:44:35.545Z,5.78
2022-08-18T13:47:39.467Z,6.15
2022-08-18T13:50:45.962Z,6.35
2022-08-18T13:54:14.360Z,7.00
2022-08-18T13:57:11.213Z,7.60
2022-08-18T14:00:20.254Z,6.75
2022-08-18T14:03:46.934Z,7.82
2022-08-18T14:06:57.328Z,7.03
2022-08-18T14:10:04.929Z,8.75
2022-08-18T14:13:20.258Z,6.00
2022-08-18T14:16:27.410Z,8.05
2022-08-18T14:19:47.588Z,6.18
2022-08-18T14:23:11.521Z,6.20
2022-08-18T14:26:31.958Z,6.90
2022-08-18T14:29:45.541Z,4.70
2022-08-18T14:32:53.471Z,7.15
2022-08-18T14:36:06.334Z,6.43
2022-08-18T14:39:13.898Z,8.60
2022-08-18T14:42:18.955Z,9.88
2022-08-18T14:45:34.392Z,16.50
2022-08-18T14:48:38.270Z,15.23
2022-08-18T14:51:46.041Z,9.35
2022-08-18T14:54:51.747Z,11.35
2022-08-18T14:57:59.377Z,11.52
2022-08-18T15:01:10.382Z,11.77
2022-08-18T15:04:19.082Z,9.80
2022-08-18T15:07:24.135Z,9.27
2022-08-18T15:10:29.006Z,8.15
2022-08-18T15:13:32.097Z,12.57
2022-08-18T15:16:35.004Z,8.35
2022-08-18T15:19:59.945Z,9.32
2022-08-18T15:23:27.919Z,14.27
2022-08-18T15:26:32.429Z,8.18
2022-08-18T15:29:37.133Z,8.02
2022-08-18T15:32:45.443Z,8.55
2022-08-18T15:35:50.505Z,11.13
2022-08-18T15:38:53.629Z,11.90
2022-08-18T15:41:58.276Z,8.10
2022-08-18T15:45:12.097Z,9.73
2022-08-18T15:48:17.570Z,7.22
2022-08-18T15:51:20.329Z,6.80
2022-08-18T15:54:22.998Z,10.73
2022-08-18T15:57:35.304Z,9.80
2022-08-18T16:00:50.594Z,9.40
2022-08-18T16:03:54.492Z,8.75
2022-08-18T16:06:57.421Z,9.10
2022-08-18T16:09:59.937Z,8.10
2022-08-18T16:13:05.124Z,7.25
2022-08-18T16:16:13.166Z,7.30
2022-08-18T16:19:15.664Z,8.68
2022-08-18T16:22:21.674Z,9.85
2022-08-18T16:25:24.545Z,11.60
2022-08-18T16:28:34.775Z,9.52
2022-08-18T16:31:37.642Z,8.15
2022-08-18T16:34:40.372Z,8.70
2022-08-18T16:37:43.149Z,11.68
2022-08-18T16:40:46.193Z,10.75
2022-08-18T16:43:50.373Z,9.90
2022-08-18T16:46:52.898Z,7.60
2022-08-18T16:49:58.472Z,7.95
2022-08-18T16:53:01.945Z,12.90
2022-08-18T16:56:05.089Z,11.75
2022-08-18T16:59:34.774Z,8.30
2022-08-18T17:02:54.629Z,8.15
2022-08-18T17:06:01.484Z,11.18
2022-08-18T17:09:09.821Z,8.00
2022-08-18T17:12:12.729Z,9.50
2022-08-18T17:15:16.746Z,9.82
2022-08-18T17:18:19.851Z,10.75
2022-08-18T17:21:29.697Z,10.48
2022-08-18T17:24:32.683Z,13.18
2022-08-18T17:27:37.298Z,8.32
2022-08-18T17:30:47.133Z,15.25
2022-08-18T17:33:49.976Z,9.70
2022-08-18T17:36:55.889Z,9.75
2022-08-18T17:40:04.199Z,11.50
2022-08-18T17:43:11.697Z,10.48
2022-08-18T17:46:25.929Z,12.18
2022-08-18T17:49:46.930Z,14.50
2022-08-18T17:52:56.382Z,12.52
2022-08-18T17:56:02.734Z,12.38
2022-08-18T17:59:46.072Z,10.13
2022-08-18T18:02:35.597Z,11.32
2022-08-18T18:05:42.716Z,10.43
2022-08-18T18:08:50.571Z,12.77
2022-08-18T18:11:53.099Z,11.90
2022-08-18T18:14:55.720Z,12.63
2022-08-18T18:18:20.091Z,11.05
2022-08-18T18:21:23.836Z,10.80
2022-08-18T18:24:51.143Z,14.02
2022-08-18T18:27:53.743Z,8.95
2022-08-18T18:31:00.311Z,13.57
2022-08-18T18:34:07.567Z,11.85
2022-08-18T18:37:33.191Z,16.90
2022-08-18T18:40:39.653Z,13.27
2022-08-18T18:43:44.671Z,10.15
2022-08-18T18:47:01.308Z,10.32
2022-08-18T18:50:10.564Z,10.75
2022-08-18T18:53:23.777Z,10.00
2022-08-18T18:56:30.647Z,10.77
2022-08-18T18:59:46.384Z,11.43
2022-08-18T19:02:59.335Z,9.77
2022-08-18T19:06:14.365Z,12.05
2022-08-18T19:09:23.225Z,9.57
2022-08-18T19:12:31.018Z,9.70
2022-08-18T19:15:38.398Z,8.18
2022-08-18T19:18:57.974Z,10.00
2022-08-18T19:22:19.002Z,8.27
2022-08-18T19:25:27.191Z,9.38
2022-08-18T19:28:35.139Z,9.25
2022-08-18T19:32:02.082Z,8.10
2022-08-18T19:35:11.880Z,8.38
2022-08-18T19:38:22.660Z,10.43
2022-08-18T19:41:38.969Z,11.00
2022-08-18T19:45:13.122Z,9.90
2022-08-18T19:48:26.065Z,12.77
2022-08-18T19:51:33.511Z,8.90
2022-08-18T19:54:51.865Z,9.63
2022-08-18T19:58:22.788Z,11.00
2022-08-18T20:01:36.812Z,13.30
2022-08-18T20:04:51.829Z,8.68
2022-08-18T20:08:29.754Z,9.95
2022-08-18T20:11:50.478Z,8.23
2022-08-18T20:15:01.982Z,10.77
2022-08-18T20:21:41.373Z,9.07
2022-08-18T20:24:50.818Z,8.40
2022-08-18T20:28:23.568Z,8.65
2022-08-18T20:31:26.619Z,10.40
2022-08-18T20:34:31.273Z,8.77
2022-08-18T20:37:33.950Z,8.50
2022-08-18T20:40:38.972Z,8.68
2022-08-18T20:43:42.948Z,10.30
2022-08-18T20:46:55.240Z,12.93
2022-08-18T20:50:19.463Z,8.93
2022-08-18T20:53:40.125Z,10.30
2022-08-18T20:56:48.124Z,9.52
2022-08-18T20:59:56.386Z,9.75
2022-08-18T21:03:00.874Z,9.00
2022-08-18T21:06:04.933Z,11.35
2022-08-18T21:09:07.485Z,8.77
2022-08-18T21:12:14.406Z,8.90
2022-08-18T21:15:18.611Z,8.65
2022-08-18T21:18:23.186Z,8.52
2022-08-18T21:21:28.350Z,9.38
2022-08-18T21:24:34.009Z,9.07
2022-08-18T21:27:39.077Z,11.27
2022-08-18T21:30:56.057Z,9.60
2022-08-18T21:34:35.566Z,10.30
2022-08-18T21:37:42.329Z,9.77
2022-08-18T21:40:46.403Z,7.22
2022-08-18T21:43:50.807Z,9.23
2022-08-18T21:47:05.563Z,8.70
2022-08-18T21:50:12.204Z,8.90
2022-08-18T21:53:20.834Z,10.73
2022-08-18T21:56:25.721Z,7.60
2022-08-18T21:59:28.189Z,9.05
2022-08-18T22:02:32.149Z,8.38
2022-08-18T22:05:58.438Z,9.02
2022-08-18T22:09:20.405Z,7.70
2022-08-18T22:12:49.448Z,8.60
2022-08-18T22:15:52.344Z,9.75
2022-08-18T22:19:09.282Z,8.30
2022-08-18T22:22:25.760Z,10.50
2022-08-18T22:25:28.258Z,10.98
2022-08-18T22:28:30.740Z,8.98
2022-08-18T22:31:35.606Z,9.23
2022-08-18T22:34:40.473Z,7.30
2022-08-18T22:37:50.570Z,7.47
2022-08-18T22:40:53.297Z,7.78
2022-08-18T22:43:57.558Z,7.85
2022-08-18T22:47:00.261Z,9.05
2022-08-18T22:50:05.147Z,8.90
2022-08-18T22:53:07.638Z,9.07
2022-08-18T22:56:10.073Z,10.32
2022-08-18T22:59:19.585Z,10.57
2022-08-18T23:02:22.646Z,9.00
2022-08-18T23:05:26.451Z,8.80
2022-08-18T23:08:35.728Z,7.82
2022-08-18T23:11:53.764Z,9.00
2022-08-18T23:14:56.195Z,8.60
2022-08-18T23:17:58.706Z,7.93
2022-08-18T23:21:02.779Z,8.05
2022-08-18T23:24:05.509Z,8.25
2022-08-18T23:27:09.354Z,8.55
2022-08-18T23:30:12.478Z,8.60
2022-08-18T23:33:15.812Z,10.63
2022-08-18T23:36:19.687Z,9.43
2022-08-18T23:39:22.801Z,8.88
2022-08-18T23:42:25.293Z,11.23
2022-08-18T23:45:28.880Z,11.15
2022-08-18T23:48:31.475Z,9.00
2022-08-18T23:51:38.085Z,9.35
2022-08-18T23:54:40.520Z,8.88
2022-08-18T23:57:42.968Z,9.30
